Grant, NE

7:25 AM MDT on October 25, 2014 (GMT -0600)
Sisco Fertilizer | Change Station
CLOSE
Current Station
Personal Weather Station
Location: Elsie, NE
Elevation: 3415 ft
Nearby Weather Stations

Elev 3415 ft 40.84 °N, 101.40 °W | Updated 1 second ago

Clear
Clear
45.3 °F
Feels Like 39 °F
N
14.0
Wind Variable Wind from NNE
Gusts 17.0 mph

Today
High -- | Low -- °F
--% Chance of Precip.
Yesterday
High -- | Low -- °F
Precip. -- in
7:09 AM 5:51 PM
Waxing Crescent, 3% visible
Pressure 30.13 in
Visibility 10.0 miles
Clouds Clear
Windchill 39 °F
Dew Point 36 °F
Humidity 70%
Rainfall 0.00 in
Snow Depth Not available.
UV 0 out of 12
Pollen 2.30 out of 12
Air Quality Not available.
Flu Activity Sporadic
METAR KOGA 251315Z AUTO 00000KT 10SM CLR 03/01 A3013 RMK AO2 T00320008

More Conditions Fewer Conditions

Pressure 30.13 in
Visibility 10.0 miles
Clouds Clear
Windchill 39 °F
Dew Point 36 °F
Humidity 70%
Rainfall 0.00 in
Snow Depth Not available.
UV 0 out of 12
Pollen 2.30 out of 12
Air Quality Not available.
Flu Activity Sporadic
METAR KOGA 251315Z AUTO 00000KT 10SM CLR 03/01 A3013 RMK AO2 T00320008

More Conditions Fewer Conditions

10-Day Weather Forecast

Almanac

Astronomy

Oct. 25, 2014 Rise Set
Actual Time 7:09 AM MDT 5:51 PM MDT
Civil Twilight 6:41 AM MDT 6:19 PM MDT
Nautical Twilight 6:09 AM MDT 6:51 PM MDT
Astronomical Twilight 5:37 AM MDT 7:23 PM MDT
Moon 8:50 AM MDT 7:15 PM MDT
Length of Visible Light 11h 38m
Length of Day
10h 42m
Tomorrow will be 2m 30s shorter.
Waxing Crescent, 3% of the Moon is Illuminated
Today
Waxing Crescent
Oct 30
First Quarter
Nov 6
Full
Nov 14
Last Quarter
Nov 22
New

Today's Extremes

State Highs State Lows

Community

WunderPhotos

Upload Photos

1,764,829 photos uploaded!

Nearby

Snow Depth

Station Depth Elevation
No new snow has been reported.

Earthquake Activity

City Distance Mag. Time & Date
No recent earthquake activity has been reported nearby.
Minimum magnitude displayed is 2.5.

Coastal Water Temperatures

Place Temperature
No Stations Reporting

Nearby Weather Stations